sensor_id;sensor_type;location;lat;lon;timestamp;temperature;humidity
46085;DHT22;31823;47.032;8.310;2023-05-14T00:00:11;11.00;99.90
46085;DHT22;31823;47.032;8.310;2023-05-14T00:02:36;11.10;99.90
46085;DHT22;31823;47.032;8.310;2023-05-14T00:05:02;11.00;99.90
46085;DHT22;31823;47.032;8.310;2023-05-14T00:07:28;11.00;99.90
46085;DHT22;31823;47.032;8.310;2023-05-14T00:09:56;11.00;99.90
46085;DHT22;31823;47.032;8.310;2023-05-14T00:12:21;11.00;99.90
46085;DHT22;31823;47.032;8.310;2023-05-14T00:14:47;11.00;99.90
46085;DHT22;31823;47.032;8.310;2023-05-14T00:17:13;11.00;99.90
46085;DHT22;31823;47.032;8.310;2023-05-14T00:19:38;11.00;99.90
46085;DHT22;31823;47.032;8.310;2023-05-14T00:22:07;11.00;99.90
46085;DHT22;31823;47.032;8.310;2023-05-14T00:24:33;11.00;99.90
46085;DHT22;31823;47.032;8.310;2023-05-14T00:26:59;11.00;99.90
46085;DHT22;31823;47.032;8.310;2023-05-14T00:29:24;11.00;99.90
46085;DHT22;31823;47.032;8.310;2023-05-14T00:31:50;11.00;99.90
46085;DHT22;31823;47.032;8.310;2023-05-14T00:34:15;11.00;99.90
46085;DHT22;31823;47.032;8.310;2023-05-14T00:36:41;11.10;99.90
46085;DHT22;31823;47.032;8.310;2023-05-14T00:39:07;11.10;99.90
46085;DHT22;31823;47.032;8.310;2023-05-14T00:41:32;11.00;99.90
46085;DHT22;31823;47.032;8.310;2023-05-14T00:43:58;11.00;99.90
46085;DHT22;31823;47.032;8.310;2023-05-14T00:46:23;11.10;99.90
46085;DHT22;31823;47.032;8.310;2023-05-14T00:48:49;10.90;99.90
46085;DHT22;31823;47.032;8.310;2023-05-14T00:51:16;10.80;99.90
46085;DHT22;31823;47.032;8.310;2023-05-14T00:53:42;10.80;99.90
46085;DHT22;31823;47.032;8.310;2023-05-14T00:56:08;11.00;99.90
46085;DHT22;31823;47.032;8.310;2023-05-14T00:58:33;11.10;99.90
46085;DHT22;31823;47.032;8.310;2023-05-14T01:00:59;11.10;99.90
46085;DHT22;31823;47.032;8.310;2023-05-14T01:03:25;11.10;99.90
46085;DHT22;31823;47.032;8.310;2023-05-14T01:09:17;11.20;99.90
46085;DHT22;31823;47.032;8.310;2023-05-14T01:12:02;11.10;99.90
46085;DHT22;31823;47.032;8.310;2023-05-14T01:15:10;11.10;99.90
46085;DHT22;31823;47.032;8.310;2023-05-14T01:17:28;11.20;99.90
46085;DHT22;31823;47.032;8.310;2023-05-14T01:19:57;11.20;99.90
46085;DHT22;31823;47.032;8.310;2023-05-14T01:22:23;11.20;99.90
46085;DHT22;31823;47.032;8.310;2023-05-14T01:24:48;11.20;99.90
46085;DHT22;31823;47.032;8.310;2023-05-14T01:27:29;11.20;99.90
46085;DHT22;31823;47.032;8.310;2023-05-14T01:30:02;11.10;99.90
46085;DHT22;31823;47.032;8.310;2023-05-14T01:32:32;11.00;99.90
46085;DHT22;31823;47.032;8.310;2023-05-14T01:34:59;11.00;99.90
46085;DHT22;31823;47.032;8.310;2023-05-14T01:37:26;11.00;99.90
46085;DHT22;31823;47.032;8.310;2023-05-14T01:39:52;11.00;99.90
46085;DHT22;31823;47.032;8.310;2023-05-14T01:42:19;11.00;99.90
46085;DHT22;31823;47.032;8.310;2023-05-14T01:44:46;11.00;99.90
46085;DHT22;31823;47.032;8.310;2023-05-14T01:47:12;10.90;99.90
46085;DHT22;31823;47.032;8.310;2023-05-14T01:49:37;10.90;99.90
46085;DHT22;31823;47.032;8.310;2023-05-14T01:52:03;10.80;99.90
46085;DHT22;31823;47.032;8.310;2023-05-14T01:54:28;10.80;99.90
46085;DHT22;31823;47.032;8.310;2023-05-14T01:56:55;10.80;99.90
46085;DHT22;31823;47.032;8.310;2023-05-14T01:59:20;10.90;99.90
46085;DHT22;31823;47.032;8.310;2023-05-14T02:01:46;10.80;99.90
46085;DHT22;31823;47.032;8.310;2023-05-14T02:04:12;10.80;99.90
46085;DHT22;31823;47.032;8.310;2023-05-14T02:06:37;10.80;99.90
46085;DHT22;31823;47.032;8.310;2023-05-14T02:09:03;10.70;99.90
46085;DHT22;31823;47.032;8.310;2023-05-14T02:11:29;10.70;99.90
46085;DHT22;31823;47.032;8.310;2023-05-14T02:13:55;10.70;99.90
46085;DHT22;31823;47.032;8.310;2023-05-14T02:16:20;10.70;99.90
46085;DHT22;31823;47.032;8.310;2023-05-14T02:18:46;10.70;99.90
46085;DHT22;31823;47.032;8.310;2023-05-14T02:21:11;10.70;99.90
46085;DHT22;31823;47.032;8.310;2023-05-14T02:23:37;10.70;99.90
46085;DHT22;31823;47.032;8.310;2023-05-14T02:26:02;10.80;99.90
46085;DHT22;31823;47.032;8.310;2023-05-14T02:28:28;10.80;99.90
46085;DHT22;31823;47.032;8.310;2023-05-14T02:31:00;10.80;99.90
46085;DHT22;31823;47.032;8.310;2023-05-14T02:33:26;10.80;99.90
46085;DHT22;31823;47.032;8.310;2023-05-14T02:35:51;10.90;99.90
46085;DHT22;31823;47.032;8.310;2023-05-14T02:38:17;10.90;99.90
46085;DHT22;31823;47.032;8.310;2023-05-14T02:40:43;10.80;99.90
46085;DHT22;31823;47.032;8.310;2023-05-14T02:43:09;10.80;99.90
46085;DHT22;31823;47.032;8.310;2023-05-14T02:45:34;10.80;99.90
46085;DHT22;31823;47.032;8.310;2023-05-14T02:48:00;10.80;99.90
46085;DHT22;31823;47.032;8.310;2023-05-14T02:50:25;10.80;99.90
46085;DHT22;31823;47.032;8.310;2023-05-14T02:52:51;10.80;99.90
46085;DHT22;31823;47.032;8.310;2023-05-14T02:55:17;10.80;99.90
46085;DHT22;31823;47.032;8.310;2023-05-14T02:57:42;10.80;99.90
46085;DHT22;31823;47.032;8.310;2023-05-14T03:00:08;10.80;99.90
46085;DHT22;31823;47.032;8.310;2023-05-14T03:02:34;10.90;99.90
46085;DHT22;31823;47.032;8.310;2023-05-14T03:05:00;10.80;99.90
46085;DHT22;31823;47.032;8.310;2023-05-14T03:07:26;10.90;99.90
46085;DHT22;31823;47.032;8.310;2023-05-14T03:09:51;10.90;99.90
46085;DHT22;31823;47.032;8.310;2023-05-14T03:12:18;10.90;99.90
46085;DHT22;31823;47.032;8.310;2023-05-14T03:14:44;10.90;99.90
46085;DHT22;31823;47.032;8.310;2023-05-14T03:17:09;10.90;99.90
46085;DHT22;31823;47.032;8.310;2023-05-14T03:19:35;10.90;99.90
46085;DHT22;31823;47.032;8.310;2023-05-14T03:22:00;10.80;99.90
46085;DHT22;31823;47.032;8.310;2023-05-14T03:24:26;10.80;99.90
46085;DHT22;31823;47.032;8.310;2023-05-14T03:26:51;10.80;99.90
46085;DHT22;31823;47.032;8.310;2023-05-14T03:29:17;10.80;99.90
46085;DHT22;31823;47.032;8.310;2023-05-14T03:31:43;10.80;99.90
46085;DHT22;31823;47.032;8.310;2023-05-14T03:34:09;10.80;99.90
46085;DHT22;31823;47.032;8.310;2023-05-14T03:36:35;10.90;99.90
46085;DHT22;31823;47.032;8.310;2023-05-14T03:39:02;10.90;99.90
46085;DHT22;31823;47.032;8.310;2023-05-14T03:41:27;10.90;99.90
46085;DHT22;31823;47.032;8.310;2023-05-14T03:43:53;10.90;99.90
46085;DHT22;31823;47.032;8.310;2023-05-14T03:46:18;10.80;99.90
46085;DHT22;31823;47.032;8.310;2023-05-14T03:48:44;10.80;99.90
46085;DHT22;31823;47.032;8.310;2023-05-14T03:51:09;10.80;99.90
46085;DHT22;31823;47.032;8.310;2023-05-14T03:53:35;10.90;99.90
46085;DHT22;31823;47.032;8.310;2023-05-14T03:56:01;10.80;99.90
46085;DHT22;31823;47.032;8.310;2023-05-14T03:58:26;10.80;99.90
46085;DHT22;31823;47.032;8.310;2023-05-14T04:00:52;10.80;99.90
46085;DHT22;31823;47.032;8.310;2023-05-14T04:03:18;10.70;99.90
46085;DHT22;31823;47.032;8.310;2023-05-14T04:05:43;10.70;99.90
46085;DHT22;31823;47.032;8.310;2023-05-14T04:08:09;10.70;99.90
46085;DHT22;31823;47.032;8.310;2023-05-14T04:10:34;10.70;99.90
46085;DHT22;31823;47.032;8.310;2023-05-14T04:13:00;10.70;99.90
46085;DHT22;31823;47.032;8.310;2023-05-14T04:15:26;10.80;99.90
46085;DHT22;31823;47.032;8.310;2023-05-14T04:17:51;10.80;99.90
46085;DHT22;31823;47.032;8.310;2023-05-14T04:20:17;10.70;99.90
46085;DHT22;31823;47.032;8.310;2023-05-14T04:22:42;10.80;99.90
46085;DHT22;31823;47.032;8.310;2023-05-14T04:25:08;10.80;99.90
46085;DHT22;31823;47.032;8.310;2023-05-14T04:27:34;10.80;99.90
46085;DHT22;31823;47.032;8.310;2023-05-14T04:29:59;10.80;99.90
46085;DHT22;31823;47.032;8.310;2023-05-14T04:32:25;10.80;99.90
46085;DHT22;31823;47.032;8.310;2023-05-14T04:34:51;10.80;99.90
46085;DHT22;31823;47.032;8.310;2023-05-14T04:37:16;10.90;99.90
46085;DHT22;31823;47.032;8.310;2023-05-14T04:39:42;10.80;99.90
46085;DHT22;31823;47.032;8.310;2023-05-14T04:42:08;10.80;99.90
46085;DHT22;31823;47.032;8.310;2023-05-14T04:44:34;10.80;99.90
46085;DHT22;31823;47.032;8.310;2023-05-14T04:47:01;10.80;99.90
46085;DHT22;31823;47.032;8.310;2023-05-14T04:49:27;10.80;99.90
46085;DHT22;31823;47.032;8.310;2023-05-14T04:51:53;10.70;99.90
46085;DHT22;31823;47.032;8.310;2023-05-14T04:54:18;10.70;99.90
46085;DHT22;31823;47.032;8.310;2023-05-14T04:56:44;10.70;99.90
46085;DHT22;31823;47.032;8.310;2023-05-14T04:59:10;10.70;99.90
46085;DHT22;31823;47.032;8.310;2023-05-14T05:01:35;10.60;99.90
46085;DHT22;31823;47.032;8.310;2023-05-14T05:04:01;10.70;99.90
46085;DHT22;31823;47.032;8.310;2023-05-14T05:06:26;10.70;99.90
46085;DHT22;31823;47.032;8.310;2023-05-14T05:08:52;10.70;99.90
46085;DHT22;31823;47.032;8.310;2023-05-14T05:11:17;10.70;99.90
46085;DHT22;31823;47.032;8.310;2023-05-14T05:13:43;10.70;99.90
46085;DHT22;31823;47.032;8.310;2023-05-14T05:16:08;10.80;99.90
46085;DHT22;31823;47.032;8.310;2023-05-14T05:18:34;10.70;99.90
46085;DHT22;31823;47.032;8.310;2023-05-14T05:21:00;10.80;99.90
46085;DHT22;31823;47.032;8.310;2023-05-14T05:23:25;10.80;99.90
46085;DHT22;31823;47.032;8.310;2023-05-14T05:25:51;10.80;99.90
46085;DHT22;31823;47.032;8.310;2023-05-14T05:28:16;10.80;99.90
46085;DHT22;31823;47.032;8.310;2023-05-14T05:30:42;10.90;99.90
46085;DHT22;31823;47.032;8.310;2023-05-14T05:33:10;10.80;99.90
46085;DHT22;31823;47.032;8.310;2023-05-14T05:35:36;10.80;99.90
46085;DHT22;31823;47.032;8.310;2023-05-14T05:38:02;10.90;99.90
46085;DHT22;31823;47.032;8.310;2023-05-14T05:40:27;10.90;99.90
46085;DHT22;31823;47.032;8.310;2023-05-14T05:42:53;10.90;99.90
46085;DHT22;31823;47.032;8.310;2023-05-14T05:45:19;10.80;99.90
46085;DHT22;31823;47.032;8.310;2023-05-14T05:47:44;10.90;99.90
46085;DHT22;31823;47.032;8.310;2023-05-14T05:50:10;11.00;99.90
46085;DHT22;31823;47.032;8.310;2023-05-14T05:52:36;11.00;99.90
46085;DHT22;31823;47.032;8.310;2023-05-14T05:55:02;11.10;99.90
46085;DHT22;31823;47.032;8.310;2023-05-14T05:57:28;11.10;99.90
46085;DHT22;31823;47.032;8.310;2023-05-14T05:59:53;11.10;99.90
46085;DHT22;31823;47.032;8.310;2023-05-14T06:02:19;11.10;99.90
46085;DHT22;31823;47.032;8.310;2023-05-14T06:04:44;11.00;99.90
46085;DHT22;31823;47.032;8.310;2023-05-14T06:07:11;11.00;99.90
46085;DHT22;31823;47.032;8.310;2023-05-14T06:09:36;11.00;99.90
46085;DHT22;31823;47.032;8.310;2023-05-14T06:12:02;11.10;99.90
46085;DHT22;31823;47.032;8.310;2023-05-14T06:14:28;11.20;99.90
46085;DHT22;31823;47.032;8.310;2023-05-14T06:16:53;11.00;99.90
46085;DHT22;31823;47.032;8.310;2023-05-14T06:19:19;11.10;99.90
46085;DHT22;31823;47.032;8.310;2023-05-14T06:21:44;11.20;99.90
46085;DHT22;31823;47.032;8.310;2023-05-14T06:24:10;11.20;99.90
46085;DHT22;31823;47.032;8.310;2023-05-14T06:26:37;11.20;99.90
46085;DHT22;31823;47.032;8.310;2023-05-14T06:29:03;11.30;99.90
46085;DHT22;31823;47.032;8.310;2023-05-14T06:31:28;11.30;99.90
46085;DHT22;31823;47.032;8.310;2023-05-14T06:33:54;11.40;99.90
46085;DHT22;31823;47.032;8.310;2023-05-14T06:36:19;11.30;99.90
46085;DHT22;31823;47.032;8.310;2023-05-14T06:38:45;11.30;99.90
46085;DHT22;31823;47.032;8.310;2023-05-14T06:41:10;11.20;99.90
46085;DHT22;31823;47.032;8.310;2023-05-14T06:43:36;11.30;99.90
46085;DHT22;31823;47.032;8.310;2023-05-14T06:46:02;11.20;99.90
46085;DHT22;31823;47.032;8.310;2023-05-14T06:48:27;11.20;99.90
46085;DHT22;31823;47.032;8.310;2023-05-14T06:50:54;11.20;99.90
46085;DHT22;31823;47.032;8.310;2023-05-14T06:53:19;11.30;99.90
46085;DHT22;31823;47.032;8.310;2023-05-14T06:55:48;11.20;99.90
46085;DHT22;31823;47.032;8.310;2023-05-14T06:58:14;11.20;99.90
46085;DHT22;31823;47.032;8.310;2023-05-14T07:00:39;11.20;99.90
46085;DHT22;31823;47.032;8.310;2023-05-14T07:03:05;11.30;99.90
46085;DHT22;31823;47.032;8.310;2023-05-14T07:05:31;11.40;99.90
46085;DHT22;31823;47.032;8.310;2023-05-14T07:07:56;11.40;99.90
46085;DHT22;31823;47.032;8.310;2023-05-14T07:10:22;11.40;99.90
46085;DHT22;31823;47.032;8.310;2023-05-14T07:12:48;11.50;99.90
46085;DHT22;31823;47.032;8.310;2023-05-14T07:15:14;11.50;99.90
46085;DHT22;31823;47.032;8.310;2023-05-14T07:17:40;11.70;99.90
46085;DHT22;31823;47.032;8.310;2023-05-14T07:20:09;11.70;99.90
46085;DHT22;31823;47.032;8.310;2023-05-14T07:22:34;11.70;99.90
46085;DHT22;31823;47.032;8.310;2023-05-14T07:25:00;11.70;99.90
46085;DHT22;31823;47.032;8.310;2023-05-14T07:27:27;11.80;99.90
46085;DHT22;31823;47.032;8.310;2023-05-14T07:29:52;11.90;99.90
46085;DHT22;31823;47.032;8.310;2023-05-14T07:32:18;11.80;99.90
46085;DHT22;31823;47.032;8.310;2023-05-14T07:34:43;11.80;99.90
46085;DHT22;31823;47.032;8.310;2023-05-14T07:37:09;12.00;99.90
46085;DHT22;31823;47.032;8.310;2023-05-14T07:39:35;12.10;99.90
46085;DHT22;31823;47.032;8.310;2023-05-14T07:42:01;12.20;99.90
46085;DHT22;31823;47.032;8.310;2023-05-14T07:44:26;12.20;99.90
46085;DHT22;31823;47.032;8.310;2023-05-14T07:46:52;12.20;99.90
46085;DHT22;31823;47.032;8.310;2023-05-14T07:49:17;12.10;99.90
46085;DHT22;31823;47.032;8.310;2023-05-14T07:51:43;12.10;99.90
46085;DHT22;31823;47.032;8.310;2023-05-14T07:54:10;12.20;99.90
46085;DHT22;31823;47.032;8.310;2023-05-14T07:56:35;12.20;99.90
46085;DHT22;31823;47.032;8.310;2023-05-14T07:59:01;12.20;99.90
46085;DHT22;31823;47.032;8.310;2023-05-14T08:01:26;12.10;99.90
46085;DHT22;31823;47.032;8.310;2023-05-14T08:03:52;12.10;99.90
46085;DHT22;31823;47.032;8.310;2023-05-14T08:06:17;12.10;99.90
46085;DHT22;31823;47.032;8.310;2023-05-14T08:08:45;12.20;99.90
46085;DHT22;31823;47.032;8.310;2023-05-14T08:11:11;12.10;99.90
46085;DHT22;31823;47.032;8.310;2023-05-14T08:13:36;12.10;99.90
46085;DHT22;31823;47.032;8.310;2023-05-14T08:16:02;12.10;99.90
46085;DHT22;31823;47.032;8.310;2023-05-14T08:18:28;12.20;99.90
46085;DHT22;31823;47.032;8.310;2023-05-14T08:20:53;11.90;99.90
46085;DHT22;31823;47.032;8.310;2023-05-14T08:23:19;11.80;99.90
46085;DHT22;31823;47.032;8.310;2023-05-14T08:25:45;12.10;99.90
46085;DHT22;31823;47.032;8.310;2023-05-14T08:28:10;12.30;99.90
46085;DHT22;31823;47.032;8.310;2023-05-14T08:30:36;12.30;99.90
46085;DHT22;31823;47.032;8.310;2023-05-14T08:33:02;12.50;99.90
46085;DHT22;31823;47.032;8.310;2023-05-14T08:35:27;12.80;99.90
46085;DHT22;31823;47.032;8.310;2023-05-14T08:37:53;12.90;99.90
46085;DHT22;31823;47.032;8.310;2023-05-14T08:40:18;13.00;99.90
46085;DHT22;31823;47.032;8.310;2023-05-14T08:42:44;12.80;99.90
46085;DHT22;31823;47.032;8.310;2023-05-14T08:45:20;12.60;99.90
46085;DHT22;31823;47.032;8.310;2023-05-14T08:48:10;13.00;99.90
46085;DHT22;31823;47.032;8.310;2023-05-14T08:50:38;13.10;99.90
46085;DHT22;31823;47.032;8.310;2023-05-14T08:53:04;13.30;99.90
46085;DHT22;31823;47.032;8.310;2023-05-14T08:55:30;13.50;99.90
46085;DHT22;31823;47.032;8.310;2023-05-14T08:57:57;13.90;99.90
46085;DHT22;31823;47.032;8.310;2023-05-14T09:00:23;14.40;99.90
46085;DHT22;31823;47.032;8.310;2023-05-14T09:02:51;14.40;99.90
46085;DHT22;31823;47.032;8.310;2023-05-14T09:05:18;14.20;99.90
46085;DHT22;31823;47.032;8.310;2023-05-14T09:07:44;14.20;99.90
46085;DHT22;31823;47.032;8.310;2023-05-14T09:10:10;13.80;99.90
46085;DHT22;31823;47.032;8.310;2023-05-14T09:12:36;13.70;99.90
46085;DHT22;31823;47.032;8.310;2023-05-14T09:15:01;13.40;99.90
46085;DHT22;31823;47.032;8.310;2023-05-14T09:17:27;13.40;99.90
46085;DHT22;31823;47.032;8.310;2023-05-14T09:19:53;13.40;99.90
46085;DHT22;31823;47.032;8.310;2023-05-14T09:22:19;13.50;99.90
46085;DHT22;31823;47.032;8.310;2023-05-14T09:24:45;13.30;99.90
46085;DHT22;31823;47.032;8.310;2023-05-14T09:27:17;13.30;99.90
46085;DHT22;31823;47.032;8.310;2023-05-14T09:29:46;13.20;99.90
46085;DHT22;31823;47.032;8.310;2023-05-14T09:32:12;13.10;99.90
46085;DHT22;31823;47.032;8.310;2023-05-14T09:34:38;13.00;99.90
46085;DHT22;31823;47.032;8.310;2023-05-14T09:37:06;12.90;99.90
46085;DHT22;31823;47.032;8.310;2023-05-14T09:39:34;13.00;99.90
46085;DHT22;31823;47.032;8.310;2023-05-14T09:42:01;13.00;99.90
46085;DHT22;31823;47.032;8.310;2023-05-14T09:44:27;12.90;99.90
46085;DHT22;31823;47.032;8.310;2023-05-14T09:46:53;13.00;99.90
46085;DHT22;31823;47.032;8.310;2023-05-14T09:49:19;13.00;99.90
46085;DHT22;31823;47.032;8.310;2023-05-14T09:51:45;13.00;99.90
46085;DHT22;31823;47.032;8.310;2023-05-14T09:54:11;13.00;99.90
46085;DHT22;31823;47.032;8.310;2023-05-14T09:56:37;12.70;99.90
46085;DHT22;31823;47.032;8.310;2023-05-14T09:59:03;12.60;99.90
46085;DHT22;31823;47.032;8.310;2023-05-14T10:01:30;12.50;99.90
46085;DHT22;31823;47.032;8.310;2023-05-14T10:03:56;12.50;99.90
46085;DHT22;31823;47.032;8.310;2023-05-14T10:06:30;12.50;99.90
46085;DHT22;31823;47.032;8.310;2023-05-14T10:09:00;12.60;99.90
46085;DHT22;31823;47.032;8.310;2023-05-14T10:11:30;12.80;99.90
46085;DHT22;31823;47.032;8.310;2023-05-14T10:14:16;12.90;99.90
46085;DHT22;31823;47.032;8.310;2023-05-14T10:16:46;12.90;99.90
46085;DHT22;31823;47.032;8.310;2023-05-14T10:19:17;12.90;99.90
46085;DHT22;31823;47.032;8.310;2023-05-14T10:21:47;12.90;99.90
46085;DHT22;31823;47.032;8.310;2023-05-14T10:24:14;13.00;99.90
46085;DHT22;31823;47.032;8.310;2023-05-14T10:26:40;13.30;99.90
46085;DHT22;31823;47.032;8.310;2023-05-14T10:29:08;13.40;99.90
46085;DHT22;31823;47.032;8.310;2023-05-14T10:31:47;13.50;99.90
46085;DHT22;31823;47.032;8.310;2023-05-14T10:34:33;13.70;99.90
46085;DHT22;31823;47.032;8.310;2023-05-14T10:37:00;13.90;99.90
46085;DHT22;31823;47.032;8.310;2023-05-14T10:39:43;14.00;99.90
46085;DHT22;31823;47.032;8.310;2023-05-14T10:42:32;13.80;99.90
46085;DHT22;31823;47.032;8.310;2023-05-14T10:45:01;14.00;99.90
46085;DHT22;31823;47.032;8.310;2023-05-14T10:47:34;14.20;99.90
46085;DHT22;31823;47.032;8.310;2023-05-14T10:50:04;14.40;99.90
46085;DHT22;31823;47.032;8.310;2023-05-14T10:52:30;14.20;99.90
46085;DHT22;31823;47.032;8.310;2023-05-14T10:55:02;14.10;99.90
46085;DHT22;31823;47.032;8.310;2023-05-14T10:57:30;14.30;99.90
46085;DHT22;31823;47.032;8.310;2023-05-14T10:59:58;14.50;99.90
46085;DHT22;31823;47.032;8.310;2023-05-14T11:02:30;14.40;99.90
46085;DHT22;31823;47.032;8.310;2023-05-14T11:05:04;14.00;99.90
46085;DHT22;31823;47.032;8.310;2023-05-14T11:10:18;14.30;99.90
46085;DHT22;31823;47.032;8.310;2023-05-14T11:12:46;14.40;99.90
46085;DHT22;31823;47.032;8.310;2023-05-14T11:15:14;14.30;99.90
46085;DHT22;31823;47.032;8.310;2023-05-14T11:17:42;13.90;99.90
46085;DHT22;31823;47.032;8.310;2023-05-14T11:20:08;13.40;99.90
46085;DHT22;31823;47.032;8.310;2023-05-14T11:22:35;13.20;99.90
46085;DHT22;31823;47.032;8.310;2023-05-14T11:25:01;13.10;99.90
46085;DHT22;31823;47.032;8.310;2023-05-14T11:27:27;12.90;99.90
46085;DHT22;31823;47.032;8.310;2023-05-14T11:29:52;12.90;99.90
46085;DHT22;31823;47.032;8.310;2023-05-14T11:32:20;12.90;99.90
46085;DHT22;31823;47.032;8.310;2023-05-14T11:34:46;13.00;99.90
46085;DHT22;31823;47.032;8.310;2023-05-14T11:37:13;13.10;99.90
46085;DHT22;31823;47.032;8.310;2023-05-14T11:39:45;13.10;99.90
46085;DHT22;31823;47.032;8.310;2023-05-14T11:42:12;13.20;99.90
46085;DHT22;31823;47.032;8.310;2023-05-14T11:44:39;13.30;99.90
46085;DHT22;31823;47.032;8.310;2023-05-14T11:47:05;13.30;99.90
46085;DHT22;31823;47.032;8.310;2023-05-14T11:49:31;13.20;99.90
46085;DHT22;31823;47.032;8.310;2023-05-14T11:51:57;13.60;99.90
46085;DHT22;31823;47.032;8.310;2023-05-14T11:54:27;13.80;99.90
46085;DHT22;31823;47.032;8.310;2023-05-14T11:56:57;13.90;99.90
46085;DHT22;31823;47.032;8.310;2023-05-14T11:59:27;13.90;99.90
46085;DHT22;31823;47.032;8.310;2023-05-14T12:01:54;13.60;99.90
46085;DHT22;31823;47.032;8.310;2023-05-14T12:04:20;13.40;99.90
46085;DHT22;31823;47.032;8.310;2023-05-14T12:06:49;13.30;99.90
46085;DHT22;31823;47.032;8.310;2023-05-14T12:09:20;12.90;99.90
46085;DHT22;31823;47.032;8.310;2023-05-14T12:11:48;12.60;99.90
46085;DHT22;31823;47.032;8.310;2023-05-14T12:14:22;12.50;99.90
46085;DHT22;31823;47.032;8.310;2023-05-14T12:16:49;12.40;99.90
46085;DHT22;31823;47.032;8.310;2023-05-14T12:19:18;12.20;99.90
46085;DHT22;31823;47.032;8.310;2023-05-14T12:21:47;12.10;99.90
46085;DHT22;31823;47.032;8.310;2023-05-14T12:24:16;12.00;99.90
46085;DHT22;31823;47.032;8.310;2023-05-14T12:26:47;11.90;99.90
46085;DHT22;31823;47.032;8.310;2023-05-14T12:29:16;11.80;99.90
46085;DHT22;31823;47.032;8.310;2023-05-14T12:31:46;11.70;99.90
46085;DHT22;31823;47.032;8.310;2023-05-14T12:34:23;11.70;99.90
46085;DHT22;31823;47.032;8.310;2023-05-14T12:36:49;11.90;99.90
46085;DHT22;31823;47.032;8.310;2023-05-14T12:39:14;11.90;99.90
46085;DHT22;31823;47.032;8.310;2023-05-14T12:41:40;12.00;99.90
46085;DHT22;31823;47.032;8.310;2023-05-14T12:44:05;12.00;99.90
46085;DHT22;31823;47.032;8.310;2023-05-14T12:46:32;11.70;99.90
46085;DHT22;31823;47.032;8.310;2023-05-14T12:48:58;11.50;99.90
46085;DHT22;31823;47.032;8.310;2023-05-14T12:51:27;11.40;99.90
46085;DHT22;31823;47.032;8.310;2023-05-14T12:53:53;11.50;99.90
46085;DHT22;31823;47.032;8.310;2023-05-14T12:56:19;11.60;99.90
46085;DHT22;31823;47.032;8.310;2023-05-14T12:58:46;11.70;99.90
46085;DHT22;31823;47.032;8.310;2023-05-14T13:01:11;12.40;99.90
46085;DHT22;31823;47.032;8.310;2023-05-14T13:03:37;13.20;99.90
46085;DHT22;31823;47.032;8.310;2023-05-14T13:06:03;13.40;99.90
46085;DHT22;31823;47.032;8.310;2023-05-14T13:08:29;12.90;99.90
46085;DHT22;31823;47.032;8.310;2023-05-14T13:10:55;12.60;99.90
46085;DHT22;31823;47.032;8.310;2023-05-14T13:13:21;13.10;99.90
46085;DHT22;31823;47.032;8.310;2023-05-14T13:15:47;13.40;99.90
46085;DHT22;31823;47.032;8.310;2023-05-14T13:18:13;14.30;99.90
46085;DHT22;31823;47.032;8.310;2023-05-14T13:20:39;14.90;99.90
46085;DHT22;31823;47.032;8.310;2023-05-14T13:23:05;14.40;99.90
46085;DHT22;31823;47.032;8.310;2023-05-14T13:25:30;15.00;99.90
46085;DHT22;31823;47.032;8.310;2023-05-14T13:27:56;15.50;99.90
46085;DHT22;31823;47.032;8.310;2023-05-14T13:30:22;15.70;99.90
46085;DHT22;31823;47.032;8.310;2023-05-14T13:32:47;14.80;99.90
46085;DHT22;31823;47.032;8.310;2023-05-14T13:35:13;14.90;99.90
46085;DHT22;31823;47.032;8.310;2023-05-14T13:37:39;15.30;99.90
46085;DHT22;31823;47.032;8.310;2023-05-14T13:40:04;15.40;99.90
46085;DHT22;31823;47.032;8.310;2023-05-14T13:42:34;15.10;99.90
46085;DHT22;31823;47.032;8.310;2023-05-14T13:44:59;14.80;99.90
46085;DHT22;31823;47.032;8.310;2023-05-14T13:47:25;14.30;99.90
46085;DHT22;31823;47.032;8.310;2023-05-14T13:49:52;13.80;99.90
46085;DHT22;31823;47.032;8.310;2023-05-14T13:52:17;13.60;99.90
46085;DHT22;31823;47.032;8.310;2023-05-14T13:54:43;13.20;99.90
46085;DHT22;31823;47.032;8.310;2023-05-14T13:57:09;13.00;99.90
46085;DHT22;31823;47.032;8.310;2023-05-14T13:59:34;13.00;99.90
46085;DHT22;31823;47.032;8.310;2023-05-14T14:02:00;12.80;99.90
46085;DHT22;31823;47.032;8.310;2023-05-14T14:04:26;12.70;99.90
46085;DHT22;31823;47.032;8.310;2023-05-14T14:06:53;12.60;99.90
46085;DHT22;31823;47.032;8.310;2023-05-14T14:09:19;12.30;99.90
46085;DHT22;31823;47.032;8.310;2023-05-14T14:11:45;12.30;99.90
46085;DHT22;31823;47.032;8.310;2023-05-14T14:14:11;12.40;99.90
46085;DHT22;31823;47.032;8.310;2023-05-14T14:16:36;11.80;99.90
46085;DHT22;31823;47.032;8.310;2023-05-14T14:19:02;11.50;99.90
46085;DHT22;31823;47.032;8.310;2023-05-14T14:21:28;11.20;99.90
46085;DHT22;31823;47.032;8.310;2023-05-14T14:23:53;11.10;99.90
46085;DHT22;31823;47.032;8.310;2023-05-14T14:26:19;11.20;99.90
46085;DHT22;31823;47.032;8.310;2023-05-14T14:28:45;11.40;99.90
46085;DHT22;31823;47.032;8.310;2023-05-14T14:31:11;11.40;99.90
46085;DHT22;31823;47.032;8.310;2023-05-14T14:33:37;11.50;99.90
46085;DHT22;31823;47.032;8.310;2023-05-14T14:36:06;11.40;99.90
46085;DHT22;31823;47.032;8.310;2023-05-14T14:38:31;11.60;99.90
46085;DHT22;31823;47.032;8.310;2023-05-14T14:40:57;11.70;99.90
46085;DHT22;31823;47.032;8.310;2023-05-14T14:43:23;11.80;99.90
46085;DHT22;31823;47.032;8.310;2023-05-14T14:45:48;11.70;99.90
46085;DHT22;31823;47.032;8.310;2023-05-14T14:48:30;11.60;99.90
46085;DHT22;31823;47.032;8.310;2023-05-14T14:50:58;11.70;99.90
46085;DHT22;31823;47.032;8.310;2023-05-14T14:53:24;11.80;99.90
46085;DHT22;31823;47.032;8.310;2023-05-14T14:55:50;11.80;99.90
46085;DHT22;31823;47.032;8.310;2023-05-14T14:58:17;11.80;99.90
46085;DHT22;31823;47.032;8.310;2023-05-14T15:00:43;11.90;99.90
46085;DHT22;31823;47.032;8.310;2023-05-14T15:03:10;11.80;99.90
46085;DHT22;31823;47.032;8.310;2023-05-14T15:05:36;11.90;99.90
46085;DHT22;31823;47.032;8.310;2023-05-14T15:08:01;12.00;99.90
46085;DHT22;31823;47.032;8.310;2023-05-14T15:10:27;12.00;99.90
46085;DHT22;31823;47.032;8.310;2023-05-14T15:12:57;12.00;99.90
46085;DHT22;31823;47.032;8.310;2023-05-14T15:15:24;12.00;99.90
46085;DHT22;31823;47.032;8.310;2023-05-14T15:17:50;12.10;99.90
46085;DHT22;31823;47.032;8.310;2023-05-14T15:20:16;12.20;99.90
46085;DHT22;31823;47.032;8.310;2023-05-14T15:22:42;12.30;99.90
46085;DHT22;31823;47.032;8.310;2023-05-14T15:25:08;12.20;99.90
46085;DHT22;31823;47.032;8.310;2023-05-14T15:27:34;12.40;99.90
46085;DHT22;31823;47.032;8.310;2023-05-14T15:29:59;12.30;99.90
46085;DHT22;31823;47.032;8.310;2023-05-14T15:32:26;12.50;99.90